Terminal Aerodrome Forecast
Issued by NWS

Home | Current Version | Previous Version | Text Only | Print | Product List | Glossary On
Versions: 1 2 3 4 5 6 7 8 9 10 11 12 13 14 15 16 17 18 19 20 21 22 23 24 25 26 27
000
FTUS41 KBGM 042040 AAC
TAFITH
TAF AMD
KITH 042040Z 0421/0518 VRB06KT P6SM SCT025 BKN035
      TEMPO 0421/0423 4SM -SHRA BR OVC025
     FM042300 10005KT P6SM OVC025
      TEMPO 0511/0515 BKN035
     FM051500 36010KT P6SM -SHRA BKN035=

USA.gov is the U.S. government's official web portal to all federal, state and local government web resources and services.